EST,Max TemperatureF,Mean TemperatureF,Min TemperatureF,Max Dew PointF,MeanDew PointF,Min DewpointF,Max Humidity, Mean Humidity, Min Humidity, Max Sea Level PressureIn, Mean Sea Level PressureIn, Min Sea Level PressureIn, Max VisibilityMiles, Mean VisibilityMiles, Min VisibilityMiles, Max Wind SpeedMPH, Mean Wind SpeedMPH, Max Gust SpeedMPH,PrecipitationIn, CloudCover, Events, WindDirDegrees
2013-11-1,64,56,48,61,50,41,100,75,52,29.84,29.79,29.70,10,10,4,22,11,31,0.23,5,Rain,229
2013-11-2,55,48,42,43,38,34,87,70,50,30.06,29.89,29.81,10,10,10,16,8,24,0.00,3,,275
2013-11-3,50,44,37,37,35,32,93,78,54,30.32,30.22,30.07,10,10,10,8,4,,0.00,5,,338
2013-11-4,55,45,35,34,32,30,87,59,41,30.44,30.39,30.34,10,10,10,10,4,16,0.00,0,,164
2013-11-5,60,51,42,32,30,28,66,47,29,30.47,30.42,30.37,10,10,10,9,4,,0.00,0,,161
2013-11-6,69,58,46,52,48,28,100,69,50,30.37,30.23,30.10,10,10,10,17,6,25,0.00,4,,181
2013-11-7,59,46,33,54,41,30,100,87,62,30.23,30.14,30.03,10,9,0,17,10,25,0.13,5,Fog-Rain,288
2013-11-8,44,38,32,30,28,25,87,70,46,30.35,30.28,30.23,10,10,10,12,6,17,0.00,1,,301
2013-11-9,51,42,32,32,28,23,75,56,43,30.28,30.23,30.18,10,10,10,22,6,31,0.00,0,,213
2013-11-10,55,44,33,37,30,25,81,57,31,30.32,30.25,30.21,10,10,10,17,9,23,0.00,0,,275
2013-11-11,62,47,32,30,25,19,80,46,19,30.31,30.23,30.15,10,10,10,10,3,,0.00,1,,223
2013-11-12,50,36,23,39,27,19,100,80,40,30.48,30.29,30.11,10,8,1,17,9,26,0.01,8,Rain-Snow,331
2013-11-13,35,27,19,23,21,19,100,77,56,30.54,30.47,30.39,10,10,10,12,6,,0.00,2,Snow,314
2013-11-14,51,38,24,23,20,18,80,52,26,30.41,30.34,30.26,10,10,10,14,7,18,0.00,0,,207
2013-11-15,53,43,33,48,32,18,100,64,39,30.28,30.22,30.17,10,10,7,12,5,16,0.05,4,Rain,194
2013-11-16,62,54,46,55,51,46,100,87,68,30.24,30.18,30.12,10,10,10,18,6,28,0.00,5,Rain,181
2013-11-17,64,58,53,61,54,50,100,88,64,30.12,29.98,29.86,10,10,7,22,15,33,0.52,4,Rain,177
2013-11-18,59,49,39,59,38,28,100,66,41,30.12,30.02,29.90,10,10,10,14,8,24,0.02,2,,295
2013-11-19,42,37,32,30,28,27,93,77,53,30.24,30.18,30.12,10,10,10,13,6,17,0.00,1,,356
2013-11-20,51,42,32,28,28,27,87,62,41,30.32,30.27,30.20,10,10,10,12,4,17,0.00,0,,154
2013-11-21,62,50,39,52,42,28,88,71,55,30.39,30.34,30.30,10,10,10,14,9,20,0.00,2,,170
2013-11-22,55,50,46,55,52,46,100,96,88,30.32,30.25,30.18,10,8,0,16,8,21,0.15,8,Fog-Rain,234
2013-11-23,46,36,26,46,33,19,100,88,64,30.31,30.24,30.21,10,7,0,15,9,30,0.02,6,Fog-Rain-Snow,319
2013-11-24,26,20,15,19,10,3,86,62,40,30.48,30.40,30.30,10,10,2,15,9,24,0.00,3,Snow,338
2013-11-25,37,27,17,32,15,7,100,58,38,30.39,30.30,30.16,10,10,2,9,3,,0.02,4,Snow,180
2013-11-26,46,39,32,46,39,30,100,100,93,30.16,29.93,29.74,10,6,0,10,5,18,1.24,8,Fog-Rain-Snow,184
2013-11-27,32,26,17,32,24,12,100,93,74,30.19,29.91,29.74,10,5,0,16,10,25,0.05,8,Snow,314
2013-11-28,35,24,12,25,19,12,100,80,60,30.41,30.30,30.18,10,10,7,10,4,,0.02,0,,227
2013-11-29,41,34,26,28,22,18,80,65,49,30.53,30.48,30.41,10,10,10,6,2,,0.00,0,,12
2013-11-30,50,42,35,30,26,23,70,58,40,30.46,30.38,30.25,10,10,10,12,8,17,0.00,0,,176